sensor_id;sensor_type;location;lat;lon;timestamp;P1;durP1;ratioP1;P2;durP2;ratioP2
49784;SDS011;35679;38.732;-121.358;2024-02-15T00:00:59;8.30;;;7.45;;
49784;SDS011;35679;38.732;-121.358;2024-02-15T00:03:49;8.05;;;7.35;;
49784;SDS011;35679;38.732;-121.358;2024-02-15T00:06:38;8.45;;;7.80;;
49784;SDS011;35679;38.732;-121.358;2024-02-15T00:09:28;8.65;;;7.97;;
49784;SDS011;35679;38.732;-121.358;2024-02-15T00:12:17;8.38;;;7.78;;
49784;SDS011;35679;38.732;-121.358;2024-02-15T00:15:07;6.80;;;6.30;;
49784;SDS011;35679;38.732;-121.358;2024-02-15T00:17:57;7.00;;;6.43;;
49784;SDS011;35679;38.732;-121.358;2024-02-15T00:20:47;7.53;;;7.03;;
49784;SDS011;35679;38.732;-121.358;2024-02-15T00:23:37;8.55;;;7.85;;
49784;SDS011;35679;38.732;-121.358;2024-02-15T00:26:26;7.88;;;7.28;;
49784;SDS011;35679;38.732;-121.358;2024-02-15T00:29:16;8.48;;;7.80;;
49784;SDS011;35679;38.732;-121.358;2024-02-15T00:32:06;8.25;;;7.65;;
49784;SDS011;35679;38.732;-121.358;2024-02-15T00:34:56;7.80;;;7.25;;
49784;SDS011;35679;38.732;-121.358;2024-02-15T00:37:46;8.07;;;7.47;;
49784;SDS011;35679;38.732;-121.358;2024-02-15T00:40:38;8.88;;;8.27;;
49784;SDS011;35679;38.732;-121.358;2024-02-15T00:43:28;8.18;;;7.57;;
49784;SDS011;35679;38.732;-121.358;2024-02-15T00:46:17;8.50;;;7.90;;
49784;SDS011;35679;38.732;-121.358;2024-02-15T00:49:07;8.75;;;8.15;;
49784;SDS011;35679;38.732;-121.358;2024-02-15T00:51:57;8.27;;;7.68;;
49784;SDS011;35679;38.732;-121.358;2024-02-15T00:54:47;8.60;;;8.00;;
49784;SDS011;35679;38.732;-121.358;2024-02-15T00:57:36;8.75;;;8.15;;
49784;SDS011;35679;38.732;-121.358;2024-02-15T01:00:25;8.60;;;7.93;;
49784;SDS011;35679;38.732;-121.358;2024-02-15T01:03:15;8.48;;;7.85;;
49784;SDS011;35679;38.732;-121.358;2024-02-15T01:06:06;11.43;;;10.73;;
49784;SDS011;35679;38.732;-121.358;2024-02-15T01:08:56;11.80;;;11.00;;
49784;SDS011;35679;38.732;-121.358;2024-02-15T01:11:46;11.48;;;10.65;;
49784;SDS011;35679;38.732;-121.358;2024-02-15T01:14:36;10.77;;;10.18;;
49784;SDS011;35679;38.732;-121.358;2024-02-15T01:17:26;11.80;;;10.80;;
49784;SDS011;35679;38.732;-121.358;2024-02-15T01:20:15;11.40;;;10.63;;
49784;SDS011;35679;38.732;-121.358;2024-02-15T01:23:05;11.55;;;10.85;;
49784;SDS011;35679;38.732;-121.358;2024-02-15T01:25:56;12.13;;;11.32;;
49784;SDS011;35679;38.732;-121.358;2024-02-15T01:28:46;11.77;;;10.98;;
49784;SDS011;35679;38.732;-121.358;2024-02-15T01:31:36;11.10;;;10.40;;
49784;SDS011;35679;38.732;-121.358;2024-02-15T01:34:27;11.98;;;11.18;;
49784;SDS011;35679;38.732;-121.358;2024-02-15T01:37:17;11.88;;;10.98;;
49784;SDS011;35679;38.732;-121.358;2024-02-15T01:40:06;11.48;;;10.77;;
49784;SDS011;35679;38.732;-121.358;2024-02-15T01:42:56;12.10;;;11.10;;
49784;SDS011;35679;38.732;-121.358;2024-02-15T01:45:46;11.18;;;10.40;;
49784;SDS011;35679;38.732;-121.358;2024-02-15T01:48:37;11.70;;;10.85;;
49784;SDS011;35679;38.732;-121.358;2024-02-15T01:51:28;11.55;;;10.75;;
49784;SDS011;35679;38.732;-121.358;2024-02-15T01:54:18;10.68;;;9.98;;
49784;SDS011;35679;38.732;-121.358;2024-02-15T01:57:08;10.40;;;9.70;;
49784;SDS011;35679;38.732;-121.358;2024-02-15T01:59:58;10.13;;;9.43;;
49784;SDS011;35679;38.732;-121.358;2024-02-15T02:02:54;10.10;;;9.48;;
49784;SDS011;35679;38.732;-121.358;2024-02-15T02:05:49;10.30;;;9.50;;
49784;SDS011;35679;38.732;-121.358;2024-02-15T02:08:39;10.05;;;9.35;;
49784;SDS011;35679;38.732;-121.358;2024-02-15T02:11:29;9.38;;;8.68;;
49784;SDS011;35679;38.732;-121.358;2024-02-15T02:14:19;10.20;;;9.50;;
49784;SDS011;35679;38.732;-121.358;2024-02-15T02:17:12;10.80;;;10.02;;
49784;SDS011;35679;38.732;-121.358;2024-02-15T02:20:02;10.82;;;10.00;;
49784;SDS011;35679;38.732;-121.358;2024-02-15T02:23:08;10.45;;;9.75;;
49784;SDS011;35679;38.732;-121.358;2024-02-15T02:26:02;10.95;;;10.25;;
49784;SDS011;35679;38.732;-121.358;2024-02-15T02:28:52;11.07;;;10.38;;
49784;SDS011;35679;38.732;-121.358;2024-02-15T02:31:44;10.00;;;9.40;;
49784;SDS011;35679;38.732;-121.358;2024-02-15T02:34:33;10.15;;;9.55;;
49784;SDS011;35679;38.732;-121.358;2024-02-15T02:37:24;11.57;;;10.88;;
49784;SDS011;35679;38.732;-121.358;2024-02-15T02:40:13;11.30;;;10.60;;
49784;SDS011;35679;38.732;-121.358;2024-02-15T02:43:03;11.80;;;11.00;;
49784;SDS011;35679;38.732;-121.358;2024-02-15T02:45:52;11.20;;;10.40;;
49784;SDS011;35679;38.732;-121.358;2024-02-15T02:48:42;10.50;;;9.88;;
49784;SDS011;35679;38.732;-121.358;2024-02-15T02:51:31;11.25;;;10.45;;
49784;SDS011;35679;38.732;-121.358;2024-02-15T02:54:21;10.93;;;10.23;;
49784;SDS011;35679;38.732;-121.358;2024-02-15T02:57:10;10.65;;;9.95;;
49784;SDS011;35679;38.732;-121.358;2024-02-15T03:00:01;10.55;;;9.95;;
49784;SDS011;35679;38.732;-121.358;2024-02-15T03:02:56;11.70;;;11.00;;
49784;SDS011;35679;38.732;-121.358;2024-02-15T03:05:46;11.55;;;10.75;;
49784;SDS011;35679;38.732;-121.358;2024-02-15T03:08:37;10.70;;;10.10;;
49784;SDS011;35679;38.732;-121.358;2024-02-15T03:11:26;11.50;;;10.70;;
49784;SDS011;35679;38.732;-121.358;2024-02-15T03:14:15;11.60;;;10.80;;
49784;SDS011;35679;38.732;-121.358;2024-02-15T03:17:05;11.00;;;10.25;;
49784;SDS011;35679;38.732;-121.358;2024-02-15T03:19:54;11.27;;;10.57;;
49784;SDS011;35679;38.732;-121.358;2024-02-15T03:22:44;11.02;;;10.30;;
49784;SDS011;35679;38.732;-121.358;2024-02-15T03:25:33;11.23;;;10.43;;
49784;SDS011;35679;38.732;-121.358;2024-02-15T03:28:23;11.70;;;10.90;;
49784;SDS011;35679;38.732;-121.358;2024-02-15T03:31:13;10.63;;;9.93;;
49784;SDS011;35679;38.732;-121.358;2024-02-15T03:34:03;11.25;;;10.52;;
49784;SDS011;35679;38.732;-121.358;2024-02-15T03:36:53;10.70;;;10.00;;
49784;SDS011;35679;38.732;-121.358;2024-02-15T03:39:43;10.63;;;9.98;;
49784;SDS011;35679;38.732;-121.358;2024-02-15T03:42:32;9.75;;;9.02;;
49784;SDS011;35679;38.732;-121.358;2024-02-15T03:45:22;9.57;;;8.88;;
49784;SDS011;35679;38.732;-121.358;2024-02-15T03:48:14;9.90;;;9.10;;
49784;SDS011;35679;38.732;-121.358;2024-02-15T03:51:04;9.75;;;9.02;;
49784;SDS011;35679;38.732;-121.358;2024-02-15T03:53:55;9.80;;;9.10;;
49784;SDS011;35679;38.732;-121.358;2024-02-15T03:56:50;9.70;;;9.05;;
49784;SDS011;35679;38.732;-121.358;2024-02-15T03:59:41;8.90;;;8.20;;
49784;SDS011;35679;38.732;-121.358;2024-02-15T04:02:30;9.93;;;9.30;;
49784;SDS011;35679;38.732;-121.358;2024-02-15T04:05:20;11.77;;;10.88;;
49784;SDS011;35679;38.732;-121.358;2024-02-15T04:08:10;10.65;;;9.95;;
49784;SDS011;35679;38.732;-121.358;2024-02-15T04:10:59;10.07;;;9.35;;
49784;SDS011;35679;38.732;-121.358;2024-02-15T04:13:49;8.75;;;7.95;;
49784;SDS011;35679;38.732;-121.358;2024-02-15T04:16:38;7.95;;;7.35;;
49784;SDS011;35679;38.732;-121.358;2024-02-15T04:19:28;6.78;;;6.18;;
49784;SDS011;35679;38.732;-121.358;2024-02-15T04:22:17;7.03;;;6.53;;
49784;SDS011;35679;38.732;-121.358;2024-02-15T04:25:07;7.47;;;6.88;;
49784;SDS011;35679;38.732;-121.358;2024-02-15T04:28:05;8.32;;;7.63;;
49784;SDS011;35679;38.732;-121.358;2024-02-15T04:30:57;7.00;;;6.50;;
49784;SDS011;35679;38.732;-121.358;2024-02-15T04:33:47;7.97;;;7.28;;
49784;SDS011;35679;38.732;-121.358;2024-02-15T04:36:37;7.72;;;7.03;;
49784;SDS011;35679;38.732;-121.358;2024-02-15T04:39:27;7.47;;;6.80;;
49784;SDS011;35679;38.732;-121.358;2024-02-15T04:42:18;7.90;;;7.30;;
49784;SDS011;35679;38.732;-121.358;2024-02-15T04:45:09;7.30;;;6.80;;
49784;SDS011;35679;38.732;-121.358;2024-02-15T04:48:04;7.75;;;7.15;;
49784;SDS011;35679;38.732;-121.358;2024-02-15T04:50:55;7.75;;;7.25;;
49784;SDS011;35679;38.732;-121.358;2024-02-15T04:53:51;6.93;;;6.45;;
49784;SDS011;35679;38.732;-121.358;2024-02-15T04:56:41;7.70;;;7.07;;
49784;SDS011;35679;38.732;-121.358;2024-02-15T04:59:30;7.38;;;6.85;;
49784;SDS011;35679;38.732;-121.358;2024-02-15T05:02:20;7.28;;;6.70;;
49784;SDS011;35679;38.732;-121.358;2024-02-15T05:05:12;7.30;;;6.80;;
49784;SDS011;35679;38.732;-121.358;2024-02-15T05:08:02;6.13;;;5.72;;
49784;SDS011;35679;38.732;-121.358;2024-02-15T05:10:52;8.52;;;7.93;;
49784;SDS011;35679;38.732;-121.358;2024-02-15T05:13:45;6.65;;;6.15;;
49784;SDS011;35679;38.732;-121.358;2024-02-15T05:16:34;5.97;;;5.57;;
49784;SDS011;35679;38.732;-121.358;2024-02-15T05:19:30;6.72;;;6.22;;
49784;SDS011;35679;38.732;-121.358;2024-02-15T05:22:21;5.97;;;5.47;;
49784;SDS011;35679;38.732;-121.358;2024-02-15T05:25:10;8.32;;;7.80;;
49784;SDS011;35679;38.732;-121.358;2024-02-15T05:28:01;8.20;;;7.70;;
49784;SDS011;35679;38.732;-121.358;2024-02-15T05:34:00;8.35;;;7.85;;
49784;SDS011;35679;38.732;-121.358;2024-02-15T05:36:50;8.38;;;7.78;;
49784;SDS011;35679;38.732;-121.358;2024-02-15T05:39:40;9.00;;;8.40;;
49784;SDS011;35679;38.732;-121.358;2024-02-15T05:42:30;8.55;;;7.95;;
49784;SDS011;35679;38.732;-121.358;2024-02-15T05:48:15;9.00;;;8.38;;
49784;SDS011;35679;38.732;-121.358;2024-02-15T05:51:05;6.38;;;5.93;;
49784;SDS011;35679;38.732;-121.358;2024-02-15T05:53:55;5.72;;;5.22;;
49784;SDS011;35679;38.732;-121.358;2024-02-15T05:56:47;6.07;;;5.57;;
49784;SDS011;35679;38.732;-121.358;2024-02-15T05:59:40;5.88;;;5.35;;
49784;SDS011;35679;38.732;-121.358;2024-02-15T06:02:30;5.80;;;5.40;;
49784;SDS011;35679;38.732;-121.358;2024-02-15T06:05:21;5.88;;;5.28;;
49784;SDS011;35679;38.732;-121.358;2024-02-15T06:08:10;6.28;;;5.68;;
49784;SDS011;35679;38.732;-121.358;2024-02-15T06:11:03;5.18;;;4.78;;
49784;SDS011;35679;38.732;-121.358;2024-02-15T06:13:57;5.68;;;5.28;;
49784;SDS011;35679;38.732;-121.358;2024-02-15T06:16:47;5.30;;;4.90;;
49784;SDS011;35679;38.732;-121.358;2024-02-15T06:19:37;5.90;;;5.40;;
49784;SDS011;35679;38.732;-121.358;2024-02-15T06:22:26;5.65;;;5.05;;
49784;SDS011;35679;38.732;-121.358;2024-02-15T06:25:16;7.45;;;5.45;;
49784;SDS011;35679;38.732;-121.358;2024-02-15T06:28:10;5.30;;;4.80;;
49784;SDS011;35679;38.732;-121.358;2024-02-15T06:31:08;5.38;;;4.97;;
49784;SDS011;35679;38.732;-121.358;2024-02-15T06:34:17;6.50;;;5.22;;
49784;SDS011;35679;38.732;-121.358;2024-02-15T06:37:37;5.63;;;5.22;;
49784;SDS011;35679;38.732;-121.358;2024-02-15T06:40:45;5.93;;;5.43;;
49784;SDS011;35679;38.732;-121.358;2024-02-15T06:43:35;5.45;;;5.05;;
49784;SDS011;35679;38.732;-121.358;2024-02-15T06:46:25;5.85;;;5.35;;
49784;SDS011;35679;38.732;-121.358;2024-02-15T06:49:15;6.00;;;5.40;;
49784;SDS011;35679;38.732;-121.358;2024-02-15T06:52:08;5.97;;;5.47;;
49784;SDS011;35679;38.732;-121.358;2024-02-15T06:54:59;5.63;;;4.85;;
49784;SDS011;35679;38.732;-121.358;2024-02-15T06:57:49;5.45;;;5.05;;
49784;SDS011;35679;38.732;-121.358;2024-02-15T07:00:38;5.55;;;5.05;;
49784;SDS011;35679;38.732;-121.358;2024-02-15T07:03:28;5.32;;;4.93;;
49784;SDS011;35679;38.732;-121.358;2024-02-15T07:06:20;5.00;;;4.60;;
49784;SDS011;35679;38.732;-121.358;2024-02-15T07:09:10;6.60;;;4.80;;
49784;SDS011;35679;38.732;-121.358;2024-02-15T07:11:59;5.75;;;5.20;;
49784;SDS011;35679;38.732;-121.358;2024-02-15T07:14:49;5.32;;;4.80;;
49784;SDS011;35679;38.732;-121.358;2024-02-15T07:17:39;5.63;;;5.22;;
49784;SDS011;35679;38.732;-121.358;2024-02-15T07:20:29;5.75;;;5.25;;
49784;SDS011;35679;38.732;-121.358;2024-02-15T07:23:19;5.70;;;4.97;;
49784;SDS011;35679;38.732;-121.358;2024-02-15T07:26:09;5.45;;;5.05;;
49784;SDS011;35679;38.732;-121.358;2024-02-15T07:29:00;5.13;;;4.72;;
49784;SDS011;35679;38.732;-121.358;2024-02-15T07:31:53;5.10;;;4.53;;
49784;SDS011;35679;38.732;-121.358;2024-02-15T07:34:43;4.80;;;4.40;;
49784;SDS011;35679;38.732;-121.358;2024-02-15T07:37:34;5.40;;;4.60;;
49784;SDS011;35679;38.732;-121.358;2024-02-15T07:40:24;4.75;;;4.35;;
49784;SDS011;35679;38.732;-121.358;2024-02-15T07:43:16;5.28;;;4.60;;
49784;SDS011;35679;38.732;-121.358;2024-02-15T07:46:06;5.32;;;4.70;;
49784;SDS011;35679;38.732;-121.358;2024-02-15T07:48:56;5.05;;;4.38;;
49784;SDS011;35679;38.732;-121.358;2024-02-15T07:51:45;4.80;;;4.40;;
49784;SDS011;35679;38.732;-121.358;2024-02-15T07:54:41;4.70;;;4.40;;
49784;SDS011;35679;38.732;-121.358;2024-02-15T07:57:30;4.95;;;4.50;;
49784;SDS011;35679;38.732;-121.358;2024-02-15T08:00:19;4.40;;;4.10;;
49784;SDS011;35679;38.732;-121.358;2024-02-15T08:03:09;4.78;;;4.43;;
49784;SDS011;35679;38.732;-121.358;2024-02-15T08:05:58;5.03;;;4.20;;
49784;SDS011;35679;38.732;-121.358;2024-02-15T08:08:48;4.72;;;4.28;;
49784;SDS011;35679;38.732;-121.358;2024-02-15T08:11:40;5.50;;;4.37;;
49784;SDS011;35679;38.732;-121.358;2024-02-15T08:14:30;4.65;;;4.25;;
49784;SDS011;35679;38.732;-121.358;2024-02-15T08:17:19;5.32;;;4.43;;
49784;SDS011;35679;38.732;-121.358;2024-02-15T08:20:10;4.75;;;4.25;;
49784;SDS011;35679;38.732;-121.358;2024-02-15T08:23:00;4.68;;;4.32;;
49784;SDS011;35679;38.732;-121.358;2024-02-15T08:25:49;4.82;;;4.43;;
49784;SDS011;35679;38.732;-121.358;2024-02-15T08:28:40;5.35;;;4.43;;
49784;SDS011;35679;38.732;-121.358;2024-02-15T08:31:31;4.68;;;4.28;;
49784;SDS011;35679;38.732;-121.358;2024-02-15T08:34:20;6.18;;;3.97;;
49784;SDS011;35679;38.732;-121.358;2024-02-15T08:37:10;4.47;;;4.05;;
49784;SDS011;35679;38.732;-121.358;2024-02-15T08:39:59;4.82;;;4.35;;
49784;SDS011;35679;38.732;-121.358;2024-02-15T08:42:50;4.63;;;4.15;;
49784;SDS011;35679;38.732;-121.358;2024-02-15T08:45:39;4.65;;;4.20;;
49784;SDS011;35679;38.732;-121.358;2024-02-15T08:48:30;4.20;;;3.90;;
49784;SDS011;35679;38.732;-121.358;2024-02-15T08:51:20;4.72;;;4.32;;
49784;SDS011;35679;38.732;-121.358;2024-02-15T08:54:11;4.00;;;3.70;;
49784;SDS011;35679;38.732;-121.358;2024-02-15T08:57:01;4.35;;;3.95;;
49784;SDS011;35679;38.732;-121.358;2024-02-15T08:59:52;4.18;;;3.78;;
49784;SDS011;35679;38.732;-121.358;2024-02-15T09:02:44;4.55;;;4.25;;
49784;SDS011;35679;38.732;-121.358;2024-02-15T09:05:35;4.07;;;3.78;;
49784;SDS011;35679;38.732;-121.358;2024-02-15T09:08:24;4.25;;;3.88;;
49784;SDS011;35679;38.732;-121.358;2024-02-15T09:11:14;4.10;;;3.80;;
49784;SDS011;35679;38.732;-121.358;2024-02-15T09:14:03;4.10;;;3.80;;
49784;SDS011;35679;38.732;-121.358;2024-02-15T09:16:53;4.85;;;4.00;;
49784;SDS011;35679;38.732;-121.358;2024-02-15T09:19:42;4.65;;;4.20;;
49784;SDS011;35679;38.732;-121.358;2024-02-15T09:22:32;4.13;;;3.83;;
49784;SDS011;35679;38.732;-121.358;2024-02-15T09:25:22;3.90;;;3.70;;
49784;SDS011;35679;38.732;-121.358;2024-02-15T09:31:04;4.15;;;3.75;;
49784;SDS011;35679;38.732;-121.358;2024-02-15T09:33:53;4.15;;;3.83;;
49784;SDS011;35679;38.732;-121.358;2024-02-15T09:36:43;3.92;;;3.65;;
49784;SDS011;35679;38.732;-121.358;2024-02-15T09:39:34;4.30;;;3.90;;
49784;SDS011;35679;38.732;-121.358;2024-02-15T09:42:26;4.13;;;3.83;;
49784;SDS011;35679;38.732;-121.358;2024-02-15T09:45:16;4.40;;;4.00;;
49784;SDS011;35679;38.732;-121.358;2024-02-15T09:48:06;5.35;;;4.10;;
49784;SDS011;35679;38.732;-121.358;2024-02-15T09:50:59;4.30;;;3.90;;
49784;SDS011;35679;38.732;-121.358;2024-02-15T09:53:50;4.10;;;3.80;;
49784;SDS011;35679;38.732;-121.358;2024-02-15T09:56:40;4.45;;;4.05;;
49784;SDS011;35679;38.732;-121.358;2024-02-15T09:59:30;4.20;;;3.80;;
49784;SDS011;35679;38.732;-121.358;2024-02-15T10:02:20;4.00;;;3.80;;
49784;SDS011;35679;38.732;-121.358;2024-02-15T10:05:11;4.05;;;3.83;;
49784;SDS011;35679;38.732;-121.358;2024-02-15T10:08:01;3.83;;;3.45;;
49784;SDS011;35679;38.732;-121.358;2024-02-15T10:11:07;4.38;;;4.07;;
49784;SDS011;35679;38.732;-121.358;2024-02-15T10:14:09;4.13;;;3.78;;
49784;SDS011;35679;38.732;-121.358;2024-02-15T10:17:05;7.80;;;4.10;;
49784;SDS011;35679;38.732;-121.358;2024-02-15T10:20:03;4.15;;;3.85;;
49784;SDS011;35679;38.732;-121.358;2024-02-15T10:25:48;3.85;;;3.50;;
49784;SDS011;35679;38.732;-121.358;2024-02-15T10:28:38;4.30;;;4.00;;
49784;SDS011;35679;38.732;-121.358;2024-02-15T10:31:27;3.80;;;3.60;;
49784;SDS011;35679;38.732;-121.358;2024-02-15T10:34:17;4.18;;;3.63;;
49784;SDS011;35679;38.732;-121.358;2024-02-15T10:37:13;3.67;;;3.47;;
49784;SDS011;35679;38.732;-121.358;2024-02-15T10:40:07;4.07;;;3.63;;
49784;SDS011;35679;38.732;-121.358;2024-02-15T10:42:57;4.03;;;3.72;;
49784;SDS011;35679;38.732;-121.358;2024-02-15T10:45:48;5.07;;;3.75;;
49784;SDS011;35679;38.732;-121.358;2024-02-15T10:48:38;3.95;;;3.63;;
49784;SDS011;35679;38.732;-121.358;2024-02-15T10:51:28;3.47;;;3.28;;
49784;SDS011;35679;38.732;-121.358;2024-02-15T10:54:24;3.85;;;3.63;;
49784;SDS011;35679;38.732;-121.358;2024-02-15T10:57:37;4.32;;;4.03;;
49784;SDS011;35679;38.732;-121.358;2024-02-15T11:00:28;3.63;;;3.42;;
49784;SDS011;35679;38.732;-121.358;2024-02-15T11:03:25;3.97;;;3.67;;
49784;SDS011;35679;38.732;-121.358;2024-02-15T11:06:42;3.70;;;3.40;;
49784;SDS011;35679;38.732;-121.358;2024-02-15T11:09:33;4.00;;;3.70;;
49784;SDS011;35679;38.732;-121.358;2024-02-15T11:12:24;4.30;;;3.80;;
49784;SDS011;35679;38.732;-121.358;2024-02-15T11:15:36;5.10;;;3.47;;
49784;SDS011;35679;38.732;-121.358;2024-02-15T11:18:43;3.95;;;3.65;;
49784;SDS011;35679;38.732;-121.358;2024-02-15T11:21:56;4.82;;;3.78;;
49784;SDS011;35679;38.732;-121.358;2024-02-15T11:24:46;4.38;;;3.67;;
49784;SDS011;35679;38.732;-121.358;2024-02-15T11:27:37;4.22;;;3.88;;
49784;SDS011;35679;38.732;-121.358;2024-02-15T11:30:31;3.92;;;3.60;;
49784;SDS011;35679;38.732;-121.358;2024-02-15T11:33:32;3.67;;;3.47;;
49784;SDS011;35679;38.732;-121.358;2024-02-15T11:36:30;4.40;;;4.00;;
49784;SDS011;35679;38.732;-121.358;2024-02-15T11:39:40;3.63;;;3.40;;
49784;SDS011;35679;38.732;-121.358;2024-02-15T11:42:34;3.63;;;3.40;;
49784;SDS011;35679;38.732;-121.358;2024-02-15T11:45:26;3.85;;;3.55;;
49784;SDS011;35679;38.732;-121.358;2024-02-15T11:48:26;3.65;;;3.40;;
49784;SDS011;35679;38.732;-121.358;2024-02-15T11:51:33;3.83;;;3.53;;
49784;SDS011;35679;38.732;-121.358;2024-02-15T11:54:31;4.90;;;3.30;;
49784;SDS011;35679;38.732;-121.358;2024-02-15T11:57:21;3.88;;;3.58;;
49784;SDS011;35679;38.732;-121.358;2024-02-15T12:00:24;4.07;;;3.78;;
49784;SDS011;35679;38.732;-121.358;2024-02-15T12:03:44;3.60;;;3.40;;
49784;SDS011;35679;38.732;-121.358;2024-02-15T12:06:58;4.28;;;3.97;;
49784;SDS011;35679;38.732;-121.358;2024-02-15T12:10:06;4.07;;;3.75;;
49784;SDS011;35679;38.732;-121.358;2024-02-15T12:13:17;3.80;;;3.60;;
49784;SDS011;35679;38.732;-121.358;2024-02-15T12:16:26;4.55;;;4.15;;
49784;SDS011;35679;38.732;-121.358;2024-02-15T12:19:33;3.70;;;3.40;;
49784;SDS011;35679;38.732;-121.358;2024-02-15T12:25:24;3.95;;;3.55;;
49784;SDS011;35679;38.732;-121.358;2024-02-15T12:28:13;3.63;;;3.33;;
49784;SDS011;35679;38.732;-121.358;2024-02-15T12:31:03;3.65;;;3.30;;
49784;SDS011;35679;38.732;-121.358;2024-02-15T12:34:01;3.67;;;3.40;;
49784;SDS011;35679;38.732;-121.358;2024-02-15T12:37:07;3.90;;;3.40;;
49784;SDS011;35679;38.732;-121.358;2024-02-15T12:39:58;3.70;;;3.45;;
49784;SDS011;35679;38.732;-121.358;2024-02-15T12:43:07;4.10;;;3.70;;
49784;SDS011;35679;38.732;-121.358;2024-02-15T12:45:57;3.78;;;3.47;;
49784;SDS011;35679;38.732;-121.358;2024-02-15T12:48:47;3.42;;;3.22;;
49784;SDS011;35679;38.732;-121.358;2024-02-15T12:51:38;4.05;;;3.67;;
49784;SDS011;35679;38.732;-121.358;2024-02-15T12:54:28;3.95;;;3.65;;
49784;SDS011;35679;38.732;-121.358;2024-02-15T12:57:17;3.33;;;3.13;;
49784;SDS011;35679;38.732;-121.358;2024-02-15T13:00:07;3.45;;;3.22;;
49784;SDS011;35679;38.732;-121.358;2024-02-15T13:03:07;3.30;;;3.10;;
49784;SDS011;35679;38.732;-121.358;2024-02-15T13:06:03;3.75;;;3.40;;
49784;SDS011;35679;38.732;-121.358;2024-02-15T13:08:53;3.88;;;3.58;;
49784;SDS011;35679;38.732;-121.358;2024-02-15T13:11:43;3.60;;;3.30;;
49784;SDS011;35679;38.732;-121.358;2024-02-15T13:14:35;3.40;;;3.13;;
49784;SDS011;35679;38.732;-121.358;2024-02-15T13:17:24;3.70;;;3.50;;
49784;SDS011;35679;38.732;-121.358;2024-02-15T13:20:15;3.75;;;3.55;;
49784;SDS011;35679;38.732;-121.358;2024-02-15T13:23:09;3.92;;;3.22;;
49784;SDS011;35679;38.732;-121.358;2024-02-15T13:26:10;3.42;;;3.15;;
49784;SDS011;35679;38.732;-121.358;2024-02-15T13:29:00;3.78;;;3.50;;
49784;SDS011;35679;38.732;-121.358;2024-02-15T13:31:49;3.15;;;3.00;;
49784;SDS011;35679;38.732;-121.358;2024-02-15T13:34:39;4.38;;;3.20;;
49784;SDS011;35679;38.732;-121.358;2024-02-15T13:37:28;3.75;;;3.53;;
49784;SDS011;35679;38.732;-121.358;2024-02-15T13:40:18;3.97;;;3.30;;
49784;SDS011;35679;38.732;-121.358;2024-02-15T13:43:11;3.55;;;3.30;;
49784;SDS011;35679;38.732;-121.358;2024-02-15T13:46:00;3.42;;;3.20;;
49784;SDS011;35679;38.732;-121.358;2024-02-15T13:48:49;3.55;;;3.28;;
49784;SDS011;35679;38.732;-121.358;2024-02-15T13:51:39;3.50;;;3.25;;
49784;SDS011;35679;38.732;-121.358;2024-02-15T13:54:29;3.50;;;3.20;;
49784;SDS011;35679;38.732;-121.358;2024-02-15T13:57:19;4.30;;;4.10;;
49784;SDS011;35679;38.732;-121.358;2024-02-15T14:00:09;3.55;;;3.35;;
49784;SDS011;35679;38.732;-121.358;2024-02-15T14:03:10;3.33;;;3.13;;
49784;SDS011;35679;38.732;-121.358;2024-02-15T14:06:00;3.30;;;3.10;;
49784;SDS011;35679;38.732;-121.358;2024-02-15T14:08:50;3.72;;;3.53;;
49784;SDS011;35679;38.732;-121.358;2024-02-15T14:11:39;3.33;;;3.13;;
49784;SDS011;35679;38.732;-121.358;2024-02-15T14:14:28;3.50;;;3.30;;
49784;SDS011;35679;38.732;-121.358;2024-02-15T14:17:18;5.75;;;3.60;;
49784;SDS011;35679;38.732;-121.358;2024-02-15T14:20:08;4.20;;;3.00;;
49784;SDS011;35679;38.732;-121.358;2024-02-15T14:23:02;3.65;;;3.40;;
49784;SDS011;35679;38.732;-121.358;2024-02-15T14:25:54;3.40;;;3.20;;
49784;SDS011;35679;38.732;-121.358;2024-02-15T14:28:48;3.17;;;2.90;;
49784;SDS011;35679;38.732;-121.358;2024-02-15T14:31:38;3.25;;;3.15;;
49784;SDS011;35679;38.732;-121.358;2024-02-15T14:34:45;3.30;;;3.10;;
49784;SDS011;35679;38.732;-121.358;2024-02-15T14:37:35;3.35;;;3.05;;
49784;SDS011;35679;38.732;-121.358;2024-02-15T14:40:25;3.58;;;3.30;;
49784;SDS011;35679;38.732;-121.358;2024-02-15T14:43:30;3.55;;;3.33;;
49784;SDS011;35679;38.732;-121.358;2024-02-15T14:46:23;3.10;;;2.90;;
49784;SDS011;35679;38.732;-121.358;2024-02-15T14:49:12;4.47;;;4.00;;
49784;SDS011;35679;38.732;-121.358;2024-02-15T14:52:02;3.40;;;3.20;;
49784;SDS011;35679;38.732;-121.358;2024-02-15T14:54:51;4.25;;;3.20;;
49784;SDS011;35679;38.732;-121.358;2024-02-15T14:57:41;3.10;;;2.92;;
49784;SDS011;35679;38.732;-121.358;2024-02-15T15:00:31;3.38;;;3.15;;
49784;SDS011;35679;38.732;-121.358;2024-02-15T15:03:24;4.60;;;3.00;;
49784;SDS011;35679;38.732;-121.358;2024-02-15T15:06:15;3.33;;;3.00;;
49784;SDS011;35679;38.732;-121.358;2024-02-15T15:09:23;3.83;;;3.20;;
49784;SDS011;35679;38.732;-121.358;2024-02-15T15:12:31;4.03;;;3.30;;
49784;SDS011;35679;38.732;-121.358;2024-02-15T15:15:28;3.60;;;3.40;;
49784;SDS011;35679;38.732;-121.358;2024-02-15T15:18:17;3.50;;;3.20;;
49784;SDS011;35679;38.732;-121.358;2024-02-15T15:21:07;3.22;;;3.03;;
49784;SDS011;35679;38.732;-121.358;2024-02-15T15:23:57;3.30;;;3.10;;
49784;SDS011;35679;38.732;-121.358;2024-02-15T15:26:46;3.55;;;3.30;;
49784;SDS011;35679;38.732;-121.358;2024-02-15T15:29:36;3.53;;;3.33;;
49784;SDS011;35679;38.732;-121.358;2024-02-15T15:32:25;3.63;;;3.42;;
49784;SDS011;35679;38.732;-121.358;2024-02-15T15:35:16;7.07;;;3.63;;
49784;SDS011;35679;38.732;-121.358;2024-02-15T15:38:08;6.40;;;3.17;;
49784;SDS011;35679;38.732;-121.358;2024-02-15T15:40:58;5.90;;;3.33;;
49784;SDS011;35679;38.732;-121.358;2024-02-15T15:43:47;4.03;;;3.10;;
49784;SDS011;35679;38.732;-121.358;2024-02-15T15:46:37;3.38;;;3.10;;
49784;SDS011;35679;38.732;-121.358;2024-02-15T15:49:27;4.32;;;3.22;;
49784;SDS011;35679;38.732;-121.358;2024-02-15T15:52:18;3.65;;;3.30;;
49784;SDS011;35679;38.732;-121.358;2024-02-15T15:55:08;5.70;;;3.45;;
49784;SDS011;35679;38.732;-121.358;2024-02-15T15:57:59;3.47;;;3.17;;
49784;SDS011;35679;38.732;-121.358;2024-02-15T16:00:49;5.28;;;3.80;;
49784;SDS011;35679;38.732;-121.358;2024-02-15T16:03:38;4.72;;;3.47;;
49784;SDS011;35679;38.732;-121.358;2024-02-15T16:06:29;4.13;;;3.47;;
49784;SDS011;35679;38.732;-121.358;2024-02-15T16:09:19;3.40;;;3.20;;
49784;SDS011;35679;38.732;-121.358;2024-02-15T16:12:08;3.70;;;3.42;;
49784;SDS011;35679;38.732;-121.358;2024-02-15T16:14:58;3.85;;;3.50;;
49784;SDS011;35679;38.732;-121.358;2024-02-15T16:17:47;3.75;;;3.45;;
49784;SDS011;35679;38.732;-121.358;2024-02-15T16:20:37;3.70;;;3.38;;
49784;SDS011;35679;38.732;-121.358;2024-02-15T16:23:27;3.60;;;3.40;;
49784;SDS011;35679;38.732;-121.358;2024-02-15T16:26:16;3.80;;;3.50;;
49784;SDS011;35679;38.732;-121.358;2024-02-15T16:29:06;3.67;;;3.47;;
49784;SDS011;35679;38.732;-121.358;2024-02-15T16:31:55;5.82;;;3.60;;
49784;SDS011;35679;38.732;-121.358;2024-02-15T16:34:45;3.70;;;3.50;;
49784;SDS011;35679;38.732;-121.358;2024-02-15T16:37:47;5.22;;;3.80;;
49784;SDS011;35679;38.732;-121.358;2024-02-15T16:40:37;5.40;;;5.00;;
49784;SDS011;35679;38.732;-121.358;2024-02-15T16:43:26;5.70;;;5.30;;